sensor_id;sensor_type;location;lat;lon;timestamp;pressure;altitude;pressure_sealevel;temperature;humidity
64602;BME280;68371;42.630;23.192;2023-04-20T00:01:21;92001.84;;;8.87;82.73
64602;BME280;68371;42.630;23.192;2023-04-20T00:03:49;92000.41;;;8.89;83.04
64602;BME280;68371;42.630;23.192;2023-04-20T00:06:15;91998.47;;;8.86;82.49
64602;BME280;68371;42.630;23.192;2023-04-20T00:08:42;91964.31;;;8.54;82.35
64602;BME280;68371;42.630;23.192;2023-04-20T00:11:11;91990.72;;;8.77;81.91
64602;BME280;68371;42.630;23.192;2023-04-20T00:13:37;91986.88;;;8.87;83.19
64602;BME280;68371;42.630;23.192;2023-04-20T00:16:05;91989.50;;;8.87;83.36
64602;BME280;68371;42.630;23.192;2023-04-20T00:18:31;91990.69;;;8.90;83.21
64602;BME280;68371;42.630;23.192;2023-04-20T00:20:58;91854.53;;;8.05;82.68
64602;BME280;68371;42.630;23.192;2023-04-20T00:23:27;91979.22;;;8.94;83.54
64602;BME280;68371;42.630;23.192;2023-04-20T00:25:53;91979.22;;;8.94;83.55
64602;BME280;68371;42.630;23.192;2023-04-20T00:28:23;91979.56;;;8.93;83.84
64602;BME280;68371;42.630;23.192;2023-04-20T00:30:51;91980.56;;;8.88;84.15
64602;BME280;68371;42.630;23.192;2023-04-20T00:33:18;91961.16;;;8.77;84.30
64602;BME280;68371;42.630;23.192;2023-04-20T00:35:45;91957.69;;;8.73;84.00
64602;BME280;68371;42.630;23.192;2023-04-20T00:38:12;91974.63;;;8.91;83.93
64602;BME280;68371;42.630;23.192;2023-04-20T00:40:38;91975.06;;;8.93;84.48
64602;BME280;68371;42.630;23.192;2023-04-20T00:43:09;91968.31;;;8.92;84.67
64602;BME280;68371;42.630;23.192;2023-04-20T00:45:37;91969.72;;;8.90;84.48
64602;BME280;68371;42.630;23.192;2023-04-20T00:48:05;91969.22;;;8.84;84.06
64602;BME280;68371;42.630;23.192;2023-04-20T00:50:32;91969.31;;;8.88;83.61
64602;BME280;68371;42.630;23.192;2023-04-20T00:53:00;91949.63;;;8.78;82.82
64602;BME280;68371;42.630;23.192;2023-04-20T00:55:29;91971.91;;;8.88;82.09
64602;BME280;68371;42.630;23.192;2023-04-20T00:57:55;91965.50;;;8.85;81.88
64602;BME280;68371;42.630;23.192;2023-04-20T01:00:24;91965.06;;;8.83;81.74
64602;BME280;68371;42.630;23.192;2023-04-20T01:02:52;91964.06;;;8.88;82.57
64602;BME280;68371;42.630;23.192;2023-04-20T01:05:19;91965.28;;;8.90;82.53
64602;BME280;68371;42.630;23.192;2023-04-20T01:07:45;91961.66;;;8.95;81.96
64602;BME280;68371;42.630;23.192;2023-04-20T01:10:12;91964.50;;;8.90;83.27
64602;BME280;68371;42.630;23.192;2023-04-20T01:12:39;91964.84;;;8.88;83.80
64602;BME280;68371;42.630;23.192;2023-04-20T01:15:07;91952.84;;;8.87;84.11
64602;BME280;68371;42.630;23.192;2023-04-20T01:17:34;91964.84;;;8.88;84.76
64602;BME280;68371;42.630;23.192;2023-04-20T01:20:04;91963.16;;;8.96;84.42
64602;BME280;68371;42.630;23.192;2023-04-20T01:22:42;91956.72;;;8.93;81.28
64602;BME280;68371;42.630;23.192;2023-04-20T01:25:09;91918.69;;;8.55;82.22
64602;BME280;68371;42.630;23.192;2023-04-20T01:27:35;91899.63;;;8.55;83.13
64602;BME280;68371;42.630;23.192;2023-04-20T01:30:03;91779.09;;;7.79;83.34
64602;BME280;68371;42.630;23.192;2023-04-20T01:32:30;91954.97;;;8.97;84.22
64602;BME280;68371;42.630;23.192;2023-04-20T01:34:57;91936.84;;;8.76;84.92
64602;BME280;68371;42.630;23.192;2023-04-20T01:37:25;91956.50;;;8.98;85.27
64602;BME280;68371;42.630;23.192;2023-04-20T01:39:54;91954.31;;;9.00;85.26
64602;BME280;68371;42.630;23.192;2023-04-20T01:42:21;91951.69;;;9.00;85.58
64602;BME280;68371;42.630;23.192;2023-04-20T01:44:47;91952.34;;;8.97;85.44
64602;BME280;68371;42.630;23.192;2023-04-20T01:47:14;91940.59;;;8.91;85.33
64602;BME280;68371;42.630;23.192;2023-04-20T01:49:41;91952.53;;;9.05;85.23
64602;BME280;68371;42.630;23.192;2023-04-20T01:52:08;91944.16;;;8.99;85.44
64602;BME280;68371;42.630;23.192;2023-04-20T01:54:35;91946.78;;;8.99;84.66
64602;BME280;68371;42.630;23.192;2023-04-20T01:57:03;91941.28;;;9.04;85.28
64602;BME280;68371;42.630;23.192;2023-04-20T01:59:31;91925.13;;;9.02;85.27
64602;BME280;68371;42.630;23.192;2023-04-20T02:01:58;91936.28;;;8.99;84.75
64602;BME280;68371;42.630;23.192;2023-04-20T02:04:27;91941.44;;;8.95;84.72
64602;BME280;68371;42.630;23.192;2023-04-20T02:06:53;91943.22;;;8.91;84.58
64602;BME280;68371;42.630;23.192;2023-04-20T02:09:20;91939.41;;;8.89;84.46
64602;BME280;68371;42.630;23.192;2023-04-20T02:11:47;91941.69;;;8.90;82.76
64602;BME280;68371;42.630;23.192;2023-04-20T02:14:15;91933.84;;;8.90;82.92
64602;BME280;68371;42.630;23.192;2023-04-20T02:16:42;91923.75;;;8.76;84.22
64602;BME280;68371;42.630;23.192;2023-04-20T02:19:09;91933.06;;;8.90;83.08
64602;BME280;68371;42.630;23.192;2023-04-20T02:21:35;91941.34;;;8.92;83.61
64602;BME280;68371;42.630;23.192;2023-04-20T02:24:03;91933.41;;;8.88;83.26
64602;BME280;68371;42.630;23.192;2023-04-20T02:26:30;91847.75;;;8.32;83.41
64602;BME280;68371;42.630;23.192;2023-04-20T02:29:00;91848.19;;;8.34;83.88
64602;BME280;68371;42.630;23.192;2023-04-20T02:31:30;91934.81;;;8.86;83.56
64602;BME280;68371;42.630;23.192;2023-04-20T02:33:59;91930.91;;;8.79;83.43
64602;BME280;68371;42.630;23.192;2023-04-20T02:36:28;91931.94;;;8.75;84.02
64602;BME280;68371;42.630;23.192;2023-04-20T02:38:55;91922.69;;;8.65;83.66
64602;BME280;68371;42.630;23.192;2023-04-20T02:41:22;91930.97;;;8.67;83.96
64602;BME280;68371;42.630;23.192;2023-04-20T02:43:49;91940.50;;;8.59;83.47
64602;BME280;68371;42.630;23.192;2023-04-20T02:46:16;91936.03;;;8.60;84.38
64602;BME280;68371;42.630;23.192;2023-04-20T02:48:44;91936.97;;;8.68;84.62
64602;BME280;68371;42.630;23.192;2023-04-20T02:51:11;91936.91;;;8.64;84.16
64602;BME280;68371;42.630;23.192;2023-04-20T02:53:38;91943.06;;;8.72;84.99
64602;BME280;68371;42.630;23.192;2023-04-20T02:56:05;91944.59;;;8.73;85.03
64602;BME280;68371;42.630;23.192;2023-04-20T02:58:31;91946.78;;;8.71;84.71
64602;BME280;68371;42.630;23.192;2023-04-20T03:01:02;91937.41;;;8.70;85.12
64602;BME280;68371;42.630;23.192;2023-04-20T03:03:30;91937.13;;;8.59;85.64
64602;BME280;68371;42.630;23.192;2023-04-20T03:05:58;91943.91;;;8.60;84.99
64602;BME280;68371;42.630;23.192;2023-04-20T03:08:25;91942.03;;;8.60;85.03
64602;BME280;68371;42.630;23.192;2023-04-20T03:10:51;91941.13;;;8.69;85.76
64602;BME280;68371;42.630;23.192;2023-04-20T03:13:18;91937.97;;;8.63;81.96
64602;BME280;68371;42.630;23.192;2023-04-20T03:15:45;91941.28;;;8.60;83.20
64602;BME280;68371;42.630;23.192;2023-04-20T03:18:12;91937.06;;;8.71;83.90
64602;BME280;68371;42.630;23.192;2023-04-20T03:20:39;91875.59;;;8.25;82.75
64602;BME280;68371;42.630;23.192;2023-04-20T03:23:07;91941.94;;;8.57;83.14
64602;BME280;68371;42.630;23.192;2023-04-20T03:25:37;91940.84;;;8.58;83.46
64602;BME280;68371;42.630;23.192;2023-04-20T03:28:06;91943.16;;;8.47;83.59
64602;BME280;68371;42.630;23.192;2023-04-20T03:30:32;91949.69;;;8.53;83.39
64602;BME280;68371;42.630;23.192;2023-04-20T03:33:00;91949.25;;;8.51;84.37
64602;BME280;68371;42.630;23.192;2023-04-20T03:35:27;91947.06;;;8.53;83.80
64602;BME280;68371;42.630;23.192;2023-04-20T03:37:54;91946.56;;;8.48;84.14
64602;BME280;68371;42.630;23.192;2023-04-20T03:40:22;91944.16;;;8.42;83.91
64602;BME280;68371;42.630;23.192;2023-04-20T03:42:49;91945.03;;;8.47;83.97
64602;BME280;68371;42.630;23.192;2023-04-20T03:45:16;91950.16;;;8.43;84.35
64602;BME280;68371;42.630;23.192;2023-04-20T03:47:42;91939.25;;;8.29;85.13
64602;BME280;68371;42.630;23.192;2023-04-20T03:50:09;91939.94;;;8.26;84.85
64602;BME280;68371;42.630;23.192;2023-04-20T03:52:37;91954.06;;;8.37;84.60
64602;BME280;68371;42.630;23.192;2023-04-20T03:55:04;91954.84;;;8.25;84.84
64602;BME280;68371;42.630;23.192;2023-04-20T03:57:34;91931.25;;;8.09;84.93
64602;BME280;68371;42.630;23.192;2023-04-20T04:00:02;91879.53;;;7.78;84.82
64602;BME280;68371;42.630;23.192;2023-04-20T04:02:30;91953.63;;;8.47;85.21
64602;BME280;68371;42.630;23.192;2023-04-20T04:04:56;91960.50;;;8.52;84.99
64602;BME280;68371;42.630;23.192;2023-04-20T04:07:23;91951.00;;;8.47;84.86
64602;BME280;68371;42.630;23.192;2023-04-20T04:09:50;91953.94;;;8.58;85.00
64602;BME280;68371;42.630;23.192;2023-04-20T04:12:16;91961.22;;;8.65;84.78
64602;BME280;68371;42.630;23.192;2023-04-20T04:14:45;91950.53;;;8.57;84.49
64602;BME280;68371;42.630;23.192;2023-04-20T04:17:12;91949.22;;;8.63;84.14
64602;BME280;68371;42.630;23.192;2023-04-20T04:19:39;91961.81;;;8.74;84.38
64602;BME280;68371;42.630;23.192;2023-04-20T04:22:08;91961.97;;;8.65;84.65
64602;BME280;68371;42.630;23.192;2023-04-20T04:24:35;91966.03;;;8.62;84.58
64602;BME280;68371;42.630;23.192;2023-04-20T04:27:06;91967.22;;;8.65;85.00
64602;BME280;68371;42.630;23.192;2023-04-20T04:29:35;91903.03;;;8.31;83.56
64602;BME280;68371;42.630;23.192;2023-04-20T04:32:08;91963.59;;;8.70;84.58
64602;BME280;68371;42.630;23.192;2023-04-20T04:34:36;91969.19;;;8.68;85.11
64602;BME280;68371;42.630;23.192;2023-04-20T04:37:04;91969.06;;;8.65;83.67
64602;BME280;68371;42.630;23.192;2023-04-20T04:39:31;91967.47;;;8.60;82.71
64602;BME280;68371;42.630;23.192;2023-04-20T04:41:58;91972.34;;;8.61;81.77
64602;BME280;68371;42.630;23.192;2023-04-20T04:44:24;91978.69;;;8.60;82.63
64602;BME280;68371;42.630;23.192;2023-04-20T04:46:53;91938.19;;;8.30;82.46
64602;BME280;68371;42.630;23.192;2023-04-20T04:49:21;91969.28;;;8.59;81.63
64602;BME280;68371;42.630;23.192;2023-04-20T04:51:50;91977.16;;;8.59;81.65
64602;BME280;68371;42.630;23.192;2023-04-20T04:54:17;91971.91;;;8.59;81.71
64602;BME280;68371;42.630;23.192;2023-04-20T04:56:44;91979.91;;;8.51;82.15
64602;BME280;68371;42.630;23.192;2023-04-20T04:59:11;91946.56;;;8.35;82.13
64602;BME280;68371;42.630;23.192;2023-04-20T05:01:37;91969.66;;;8.58;81.50
64602;BME280;68371;42.630;23.192;2023-04-20T05:04:07;91992.50;;;8.73;81.63
64602;BME280;68371;42.630;23.192;2023-04-20T05:06:38;91989.69;;;8.66;82.20
64602;BME280;68371;42.630;23.192;2023-04-20T05:09:06;91988.69;;;8.71;82.78
64602;BME280;68371;42.630;23.192;2023-04-20T05:11:33;91984.75;;;8.77;82.51
64602;BME280;68371;42.630;23.192;2023-04-20T05:13:59;91994.03;;;8.74;80.29
64602;BME280;68371;42.630;23.192;2023-04-20T05:16:26;91983.56;;;8.74;80.60
64602;BME280;68371;42.630;23.192;2023-04-20T05:18:53;91987.78;;;8.79;81.89
64602;BME280;68371;42.630;23.192;2023-04-20T05:21:20;91990.41;;;8.79;81.77
64602;BME280;68371;42.630;23.192;2023-04-20T05:23:48;91992.44;;;8.86;81.05
64602;BME280;68371;42.630;23.192;2023-04-20T05:26:15;91990.72;;;8.77;80.70
64602;BME280;68371;42.630;23.192;2023-04-20T05:28:42;91993.03;;;8.79;81.40
64602;BME280;68371;42.630;23.192;2023-04-20T05:31:09;91996.31;;;8.76;79.13
64602;BME280;68371;42.630;23.192;2023-04-20T05:33:37;91994.59;;;8.68;79.66
64602;BME280;68371;42.630;23.192;2023-04-20T05:36:07;91997.41;;;8.75;79.40
64602;BME280;68371;42.630;23.192;2023-04-20T05:38:34;91991.59;;;8.81;79.78
64602;BME280;68371;42.630;23.192;2023-04-20T05:41:02;92002.16;;;8.85;81.19
64602;BME280;68371;42.630;23.192;2023-04-20T05:43:29;92000.22;;;8.82;81.60
64602;BME280;68371;42.630;23.192;2023-04-20T05:45:56;91999.22;;;8.87;81.48
64602;BME280;68371;42.630;23.192;2023-04-20T05:48:23;92002.69;;;8.91;82.70
64602;BME280;68371;42.630;23.192;2023-04-20T05:50:51;91858.69;;;7.94;80.59
64602;BME280;68371;42.630;23.192;2023-04-20T05:53:18;92000.41;;;8.89;81.13
64602;BME280;68371;42.630;23.192;2023-04-20T05:55:46;91950.09;;;8.55;81.36
64602;BME280;68371;42.630;23.192;2023-04-20T05:58:15;92003.66;;;8.98;81.19
64602;BME280;68371;42.630;23.192;2023-04-20T06:00:43;92002.97;;;9.01;80.64
64602;BME280;68371;42.630;23.192;2023-04-20T06:03:10;92009.41;;;9.04;80.50
64602;BME280;68371;42.630;23.192;2023-04-20T06:05:39;91982.59;;;8.67;82.86
64602;BME280;68371;42.630;23.192;2023-04-20T06:08:05;92004.69;;;8.81;84.19
64602;BME280;68371;42.630;23.192;2023-04-20T06:10:32;91997.63;;;8.70;85.09
64602;BME280;68371;42.630;23.192;2023-04-20T06:12:59;91976.72;;;8.57;86.03
64602;BME280;68371;42.630;23.192;2023-04-20T06:15:27;92004.91;;;8.89;86.70
64602;BME280;68371;42.630;23.192;2023-04-20T06:17:53;91981.63;;;8.59;86.01
64602;BME280;68371;42.630;23.192;2023-04-20T06:20:21;92007.34;;;8.69;87.08
64602;BME280;68371;42.630;23.192;2023-04-20T06:22:48;92009.63;;;8.71;86.13
64602;BME280;68371;42.630;23.192;2023-04-20T06:25:15;92006.34;;;8.74;87.73
64602;BME280;68371;42.630;23.192;2023-04-20T06:27:41;92004.50;;;8.74;88.48
64602;BME280;68371;42.630;23.192;2023-04-20T06:30:11;92000.88;;;8.79;88.97
64602;BME280;68371;42.630;23.192;2023-04-20T06:32:41;92017.34;;;8.79;88.84
64602;BME280;68371;42.630;23.192;2023-04-20T06:35:10;92004.50;;;8.74;88.09
64602;BME280;68371;42.630;23.192;2023-04-20T06:37:37;92015.09;;;8.78;86.80
64602;BME280;68371;42.630;23.192;2023-04-20T06:40:05;92011.91;;;8.85;88.87
64602;BME280;68371;42.630;23.192;2023-04-20T06:42:33;92010.22;;;8.92;87.06
64602;BME280;68371;42.630;23.192;2023-04-20T06:45:00;92015.44;;;9.05;88.33
64602;BME280;68371;42.630;23.192;2023-04-20T06:47:27;92020.59;;;8.89;87.87
64602;BME280;68371;42.630;23.192;2023-04-20T06:49:57;92017.28;;;8.76;87.59
64602;BME280;68371;42.630;23.192;2023-04-20T06:52:24;92016.50;;;8.75;88.13
64602;BME280;68371;42.630;23.192;2023-04-20T06:54:51;92022.25;;;8.81;88.95
64602;BME280;68371;42.630;23.192;2023-04-20T06:57:18;92027.59;;;8.85;87.83
64602;BME280;68371;42.630;23.192;2023-04-20T06:59:46;92030.84;;;8.94;88.41
64602;BME280;68371;42.630;23.192;2023-04-20T07:02:13;92028.22;;;8.94;88.51
64602;BME280;68371;42.630;23.192;2023-04-20T07:04:41;92029.94;;;9.02;89.46
64602;BME280;68371;42.630;23.192;2023-04-20T07:07:09;92033.63;;;8.73;88.05
64602;BME280;68371;42.630;23.192;2023-04-20T07:09:36;92033.59;;;8.85;90.28
64602;BME280;68371;42.630;23.192;2023-04-20T07:12:03;92036.66;;;8.87;91.47
64602;BME280;68371;42.630;23.192;2023-04-20T07:14:30;92038.63;;;8.90;90.53
64602;BME280;68371;42.630;23.192;2023-04-20T07:16:56;92042.44;;;8.93;90.88
64602;BME280;68371;42.630;23.192;2023-04-20T07:19:23;92031.75;;;8.86;91.39
64602;BME280;68371;42.630;23.192;2023-04-20T07:21:50;92044.72;;;8.94;91.75
64602;BME280;68371;42.630;23.192;2023-04-20T07:24:21;92043.47;;;9.04;92.06
64602;BME280;68371;42.630;23.192;2023-04-20T07:26:48;92042.66;;;9.16;92.18
64602;BME280;68371;42.630;23.192;2023-04-20T07:29:14;92014.13;;;8.98;92.60
64602;BME280;68371;42.630;23.192;2023-04-20T07:31:43;92043.56;;;9.08;91.28
64602;BME280;68371;42.630;23.192;2023-04-20T07:34:10;92046.81;;;9.17;92.20
64602;BME280;68371;42.630;23.192;2023-04-20T07:36:37;92044.63;;;9.19;93.31
64602;BME280;68371;42.630;23.192;2023-04-20T07:39:04;92041.00;;;9.23;90.58
64602;BME280;68371;42.630;23.192;2023-04-20T07:41:33;92047.03;;;9.12;88.83
64602;BME280;68371;42.630;23.192;2023-04-20T07:43:59;92042.31;;;9.17;91.36
64602;BME280;68371;42.630;23.192;2023-04-20T07:46:26;92043.94;;;9.22;93.07
64602;BME280;68371;42.630;23.192;2023-04-20T07:48:55;92045.47;;;9.23;90.24
64602;BME280;68371;42.630;23.192;2023-04-20T07:51:21;92045.66;;;9.02;90.31
64602;BME280;68371;42.630;23.192;2023-04-20T07:53:49;92044.69;;;9.07;90.96
64602;BME280;68371;42.630;23.192;2023-04-20T07:56:16;92033.09;;;9.08;88.98
64602;BME280;68371;42.630;23.192;2023-04-20T07:58:46;92041.91;;;9.15;88.48
64602;BME280;68371;42.630;23.192;2023-04-20T08:01:14;92053.56;;;9.18;89.38
64602;BME280;68371;42.630;23.192;2023-04-20T08:03:41;92039.97;;;9.28;91.39
64602;BME280;68371;42.630;23.192;2023-04-20T08:06:08;92045.16;;;9.40;90.38
64602;BME280;68371;42.630;23.192;2023-04-20T08:08:35;92048.31;;;9.18;89.92
64602;BME280;68371;42.630;23.192;2023-04-20T08:11:02;92045.16;;;8.96;87.88
64602;BME280;68371;42.630;23.192;2023-04-20T08:13:32;92057.56;;;8.99;89.52
64602;BME280;68371;42.630;23.192;2023-04-20T08:16:00;92043.56;;;9.08;89.88
64602;BME280;68371;42.630;23.192;2023-04-20T08:18:27;92048.16;;;9.11;88.65
64602;BME280;68371;42.630;23.192;2023-04-20T08:20:54;92050.41;;;9.25;87.77
64602;BME280;68371;42.630;23.192;2023-04-20T08:23:21;92042.19;;;9.26;86.95
64602;BME280;68371;42.630;23.192;2023-04-20T08:25:52;92045.09;;;9.37;88.41
64602;BME280;68371;42.630;23.192;2023-04-20T08:28:20;92048.31;;;9.46;87.38
64602;BME280;68371;42.630;23.192;2023-04-20T08:30:47;92042.53;;;9.40;87.17
64602;BME280;68371;42.630;23.192;2023-04-20T08:33:17;92048.63;;;9.45;87.34
64602;BME280;68371;42.630;23.192;2023-04-20T08:35:45;92044.19;;;9.61;86.64
64602;BME280;68371;42.630;23.192;2023-04-20T08:38:12;92046.66;;;9.70;85.61
64602;BME280;68371;42.630;23.192;2023-04-20T08:40:38;92048.94;;;9.71;83.20
64602;BME280;68371;42.630;23.192;2023-04-20T08:43:05;92047.84;;;9.72;83.95
64602;BME280;68371;42.630;23.192;2023-04-20T08:45:32;92041.09;;;9.71;83.28
64602;BME280;68371;42.630;23.192;2023-04-20T08:48:00;92014.75;;;9.52;85.94
64602;BME280;68371;42.630;23.192;2023-04-20T08:50:32;92008.25;;;9.61;84.33
64602;BME280;68371;42.630;23.192;2023-04-20T08:53:01;92040.63;;;9.85;84.26
64602;BME280;68371;42.630;23.192;2023-04-20T08:55:29;92045.03;;;9.81;85.31
64602;BME280;68371;42.630;23.192;2023-04-20T08:57:55;92044.47;;;9.88;83.03
64602;BME280;68371;42.630;23.192;2023-04-20T09:00:22;92040.66;;;9.69;82.01
64602;BME280;68371;42.630;23.192;2023-04-20T09:02:50;92055.47;;;9.77;83.79
64602;BME280;68371;42.630;23.192;2023-04-20T09:05:25;92042.34;;;9.77;84.76
64602;BME280;68371;42.630;23.192;2023-04-20T09:07:55;92054.19;;;9.87;84.94
64602;BME280;68371;42.630;23.192;2023-04-20T09:10:23;92051.56;;;9.87;83.04
64602;BME280;68371;42.630;23.192;2023-04-20T09:12:50;92050.91;;;9.90;81.06
64602;BME280;68371;42.630;23.192;2023-04-20T09:15:24;92048.78;;;9.96;80.75
64602;BME280;68371;42.630;23.192;2023-04-20T09:17:53;92050.56;;;10.08;82.15
64602;BME280;68371;42.630;23.192;2023-04-20T09:20:27;91981.75;;;9.67;81.51
64602;BME280;68371;42.630;23.192;2023-04-20T09:22:56;92043.59;;;10.15;82.23
64602;BME280;68371;42.630;23.192;2023-04-20T09:25:24;91986.91;;;9.95;81.51
64602;BME280;68371;42.630;23.192;2023-04-20T09:27:56;91993.25;;;9.94;83.03
64602;BME280;68371;42.630;23.192;2023-04-20T09:30:24;92035.56;;;10.24;82.23
64602;BME280;68371;42.630;23.192;2023-04-20T09:33:00;92029.47;;;10.20;84.05
64602;BME280;68371;42.630;23.192;2023-04-20T09:35:27;92030.31;;;10.24;83.24
64602;BME280;68371;42.630;23.192;2023-04-20T09:37:54;92022.69;;;10.19;80.84
64602;BME280;68371;42.630;23.192;2023-04-20T09:40:24;92025.06;;;10.24;80.78
64602;BME280;68371;42.630;23.192;2023-04-20T09:42:54;91971.16;;;9.95;82.75
64602;BME280;68371;42.630;23.192;2023-04-20T09:45:24;92020.47;;;10.37;82.73
64602;BME280;68371;42.630;23.192;2023-04-20T09:47:54;92029.78;;;10.50;81.80
64602;BME280;68371;42.630;23.192;2023-04-20T09:50:21;92031.59;;;10.66;81.86
64602;BME280;68371;42.630;23.192;2023-04-20T09:52:50;92026.41;;;10.69;79.63
64602;BME280;68371;42.630;23.192;2023-04-20T09:55:21;92027.63;;;10.91;82.57
64602;BME280;68371;42.630;23.192;2023-04-20T09:57:54;92025.81;;;10.95;76.28
64602;BME280;68371;42.630;23.192;2023-04-20T10:00:25;92025.38;;;11.13;78.92
64602;BME280;68371;42.630;23.192;2023-04-20T10:02:52;92019.81;;;11.37;80.37
64602;BME280;68371;42.630;23.192;2023-04-20T10:05:31;92016.09;;;11.61;79.27
64602;BME280;68371;42.630;23.192;2023-04-20T10:07:59;92014.50;;;11.76;78.52
64602;BME280;68371;42.630;23.192;2023-04-20T10:10:28;92010.81;;;11.81;74.57
64602;BME280;68371;42.630;23.192;2023-04-20T10:12:56;92017.13;;;11.76;73.26
64602;BME280;68371;42.630;23.192;2023-04-20T10:15:37;92012.63;;;11.77;75.68
64602;BME280;68371;42.630;23.192;2023-04-20T10:18:17;92007.31;;;11.96;75.54
64602;BME280;68371;42.630;23.192;2023-04-20T10:20:44;92003.84;;;12.15;74.81
64602;BME280;68371;42.630;23.192;2023-04-20T10:23:11;92019.06;;;12.02;72.04
64602;BME280;68371;42.630;23.192;2023-04-20T10:25:40;92000.38;;;11.65;71.53
64602;BME280;68371;42.630;23.192;2023-04-20T10:28:07;92005.91;;;11.37;73.50
64602;BME280;68371;42.630;23.192;2023-04-20T10:30:36;92011.84;;;11.53;71.90
64602;BME280;68371;42.630;23.192;2023-04-20T10:33:04;91976.72;;;11.42;74.62
64602;BME280;68371;42.630;23.192;2023-04-20T10:35:43;92007.69;;;11.75;74.11
64602;BME280;68371;42.630;23.192;2023-04-20T10:38:10;92008.25;;;11.85;76.08
64602;BME280;68371;42.630;23.192;2023-04-20T10:40:37;92006.91;;;11.94;75.67
64602;BME280;68371;42.630;23.192;2023-04-20T10:43:16;92009.78;;;12.09;73.27
64602;BME280;68371;42.630;23.192;2023-04-20T10:45:43;92006.53;;;12.19;76.15
64602;BME280;68371;42.630;23.192;2023-04-20T10:48:11;92004.31;;;12.21;72.59
64602;BME280;68371;42.630;23.192;2023-04-20T10:50:38;92011.19;;;12.02;70.47
64602;BME280;68371;42.630;23.192;2023-04-20T10:53:05;92014.50;;;11.99;71.60
64602;BME280;68371;42.630;23.192;2023-04-20T10:55:42;92015.22;;;11.96;72.22
64602;BME280;68371;42.630;23.192;2023-04-20T10:58:19;91988.94;;;11.77;73.30
64602;BME280;68371;42.630;23.192;2023-04-20T11:00:56;92004.56;;;11.66;71.65
64602;BME280;68371;42.630;23.192;2023-04-20T11:03:23;92006.94;;;11.75;72.13
64602;BME280;68371;42.630;23.192;2023-04-20T11:05:53;92009.16;;;11.92;74.69
64602;BME280;68371;42.630;23.192;2023-04-20T11:08:21;92014.97;;;11.82;72.39
64602;BME280;68371;42.630;23.192;2023-04-20T11:10:48;92007.88;;;11.86;75.21
64602;BME280;68371;42.630;23.192;2023-04-20T11:13:20;91963.09;;;11.59;72.66
64602;BME280;68371;42.630;23.192;2023-04-20T11:15:50;92002.97;;;11.85;72.84
64602;BME280;68371;42.630;23.192;2023-04-20T11:18:17;92000.53;;;11.95;75.51
64602;BME280;68371;42.630;23.192;2023-04-20T11:20:50;91959.63;;;12.01;72.08
64602;BME280;68371;42.630;23.192;2023-04-20T11:23:18;92001.50;;;12.63;70.23
64602;BME280;68371;42.630;23.192;2023-04-20T11:25:50;91981.00;;;13.14;73.04
64602;BME280;68371;42.630;23.192;2023-04-20T11:28:17;91997.75;;;13.66;69.19
64602;BME280;68371;42.630;23.192;2023-04-20T11:30:46;91999.44;;;13.89;67.85
64602;BME280;68371;42.630;23.192;2023-04-20T11:33:14;91990.00;;;14.36;69.35
64602;BME280;68371;42.630;23.192;2023-04-20T11:35:42;91987.63;;;14.79;69.16
64602;BME280;68371;42.630;23.192;2023-04-20T11:38:08;91983.91;;;14.91;61.78
64602;BME280;68371;42.630;23.192;2023-04-20T11:40:35;91977.03;;;14.79;63.09
64602;BME280;68371;42.630;23.192;2023-04-20T11:43:02;91944.97;;;14.91;65.96
64602;BME280;68371;42.630;23.192;2023-04-20T11:45:30;91982.53;;;15.36;59.25
64602;BME280;68371;42.630;23.192;2023-04-20T11:48:00;91976.59;;;15.75;63.01
64602;BME280;68371;42.630;23.192;2023-04-20T11:50:27;91956.94;;;15.84;60.81
64602;BME280;68371;42.630;23.192;2023-04-20T11:52:54;91967.06;;;16.46;58.69
64602;BME280;68371;42.630;23.192;2023-04-20T11:55:23;91962.97;;;16.16;52.94
64602;BME280;68371;42.630;23.192;2023-04-20T11:57:49;91959.50;;;15.37;54.80
64602;BME280;68371;42.630;23.192;2023-04-20T12:00:17;91960.59;;;15.25;56.58
64602;BME280;68371;42.630;23.192;2023-04-20T12:02:43;91962.06;;;15.15;59.82
64602;BME280;68371;42.630;23.192;2023-04-20T12:05:11;91954.75;;;14.80;58.54
64602;BME280;68371;42.630;23.192;2023-04-20T12:07:38;91960.38;;;14.64;59.88
64602;BME280;68371;42.630;23.192;2023-04-20T12:10:06;91961.06;;;14.57;61.26
64602;BME280;68371;42.630;23.192;2023-04-20T12:12:33;91966.75;;;14.59;61.24
64602;BME280;68371;42.630;23.192;2023-04-20T12:15:01;91957.69;;;14.60;60.34
64602;BME280;68371;42.630;23.192;2023-04-20T12:17:28;91960.72;;;14.62;60.03
64602;BME280;68371;42.630;23.192;2023-04-20T12:19:54;91966.31;;;14.50;59.10
64602;BME280;68371;42.630;23.192;2023-04-20T12:22:24;91961.38;;;14.49;58.83
64602;BME280;68371;42.630;23.192;2023-04-20T12:24:53;91955.66;;;14.39;59.05
64602;BME280;68371;42.630;23.192;2023-04-20T12:27:20;91917.69;;;13.99;59.98
64602;BME280;68371;42.630;23.192;2023-04-20T12:29:46;91950.16;;;14.03;59.38
64602;BME280;68371;42.630;23.192;2023-04-20T12:32:13;91956.88;;;13.94;61.56
64602;BME280;68371;42.630;23.192;2023-04-20T12:34:40;91956.44;;;13.43;64.23
64602;BME280;68371;42.630;23.192;2023-04-20T12:37:06;91953.78;;;13.40;62.95
64602;BME280;68371;42.630;23.192;2023-04-20T12:39:34;91951.53;;;13.38;64.84
64602;BME280;68371;42.630;23.192;2023-04-20T12:42:01;91960.72;;;13.18;67.80
64602;BME280;68371;42.630;23.192;2023-04-20T12:44:29;91957.44;;;12.94;65.92
64602;BME280;68371;42.630;23.192;2023-04-20T12:46:56;91948.47;;;13.02;68.17
64602;BME280;68371;42.630;23.192;2023-04-20T12:49:24;91947.19;;;12.86;67.60
64602;BME280;68371;42.630;23.192;2023-04-20T12:51:51;91951.97;;;12.76;68.48
64602;BME280;68371;42.630;23.192;2023-04-20T12:54:17;91943.13;;;12.61;69.08
64602;BME280;68371;42.630;23.192;2023-04-20T12:56:46;91931.78;;;12.57;70.29
64602;BME280;68371;42.630;23.192;2023-04-20T12:59:12;91927.34;;;12.65;72.39
64602;BME280;68371;42.630;23.192;2023-04-20T13:01:39;91943.81;;;12.89;70.99